Time,TemperatureF,DewpointF,PressureIn,WindDirection,WindDirectionDegrees,WindSpeedMPH,WindSpeedGustMPH,Humidity,HourlyPrecipIn,Conditions,Clouds,dailyrainin,SoftwareType,DateUTC
2013-04-21 00:01:00,33.0,33.0,-100.00,North,355,9.0,18.0,99,-99.99,,,-99.99,,2013-04-21 08:01:00,
2013-04-21 00:12:00,33.0,33.0,-100.00,North,355,9.0,18.0,99,-99.99,,,-99.99,,2013-04-21 08:12:00,
2013-04-21 00:21:00,33.0,33.0,-100.00,North,0,15.0,24.0,99,-99.99,,,-99.99,,2013-04-21 08:21:00,
2013-04-21 00:32:00,33.0,33.0,-100.00,North,0,15.0,24.0,99,-99.99,,,-99.99,,2013-04-21 08:32:00,
2013-04-21 00:41:00,33.0,33.0,-100.00,North,0,15.0,24.0,99,-99.99,,,-99.99,,2013-04-21 08:41:00,
2013-04-21 00:52:00,33.0,33.0,-100.00,North,10,12.0,20.0,99,-99.99,,,-99.99,,2013-04-21 08:52:00,
2013-04-21 01:01:00,33.0,33.0,-100.00,North,10,12.0,20.0,99,-99.99,,,-99.99,,2013-04-21 09:01:00,
2013-04-21 01:11:00,33.0,33.0,-100.00,North,10,12.0,20.0,99,-99.99,,,-99.99,,2013-04-21 09:11:00,
2013-04-21 01:21:00,33.0,33.0,-100.00,North,0,11.0,19.0,99,-99.99,,,-99.99,,2013-04-21 09:21:00,
2013-04-21 01:32:00,33.0,33.0,-100.00,North,0,11.0,19.0,99,-99.99,,,-99.99,,2013-04-21 09:32:00,
2013-04-21 01:43:00,33.0,33.0,-100.00,North,0,11.0,19.0,99,-99.99,,,-99.99,,2013-04-21 09:43:00,
2013-04-21 01:52:00,33.0,33.0,-100.00,North,0,12.0,21.0,99,-99.99,,,-99.99,,2013-04-21 09:52:00,
2013-04-21 02:02:00,33.0,33.0,-100.00,North,0,12.0,21.0,99,-99.99,,,-99.99,,2013-04-21 10:02:00,
2013-04-21 02:12:00,33.0,33.0,-100.00,North,0,12.0,21.0,99,-99.99,,,-99.99,,2013-04-21 10:12:00,
2013-04-21 02:22:00,33.0,33.0,-100.00,North,0,16.0,24.0,99,-99.99,,,-99.99,,2013-04-21 10:22:00,
2013-04-21 02:32:00,33.0,33.0,-100.00,North,0,16.0,24.0,99,-99.99,,,-99.99,,2013-04-21 10:32:00,
2013-04-21 02:42:00,33.0,33.0,-100.00,North,0,16.0,24.0,99,-99.99,,,-99.99,,2013-04-21 10:42:00,
2013-04-21 02:52:00,33.0,33.0,-100.00,North,0,14.0,21.0,99,-99.99,,,-99.99,,2013-04-21 10:52:00,
2013-04-21 03:02:00,33.0,33.0,-100.00,North,0,14.0,21.0,99,-99.99,,,-99.99,,2013-04-21 11:02:00,
2013-04-21 03:12:00,33.0,33.0,-100.00,North,0,14.0,21.0,99,-99.99,,,-99.99,,2013-04-21 11:12:00,
2013-04-21 03:22:00,33.0,33.0,-100.00,North,5,11.0,21.0,99,-99.99,,,-99.99,,2013-04-21 11:22:00,
2013-04-21 03:33:00,33.0,33.0,-100.00,North,5,11.0,21.0,99,-99.99,,,-99.99,,2013-04-21 11:33:00,
2013-04-21 03:42:00,33.0,33.0,-100.00,North,5,11.0,21.0,99,-99.99,,,-99.99,,2013-04-21 11:42:00,
2013-04-21 03:52:00,33.0,33.0,-100.00,North,5,16.0,23.0,99,-99.99,,,-99.99,,2013-04-21 11:52:00,
2013-04-21 04:02:00,33.0,33.0,-100.00,North,5,16.0,23.0,99,-99.99,,,-99.99,,2013-04-21 12:02:00,
2013-04-21 04:12:00,33.0,33.0,-100.00,North,5,16.0,23.0,99,-99.99,,,-99.99,,2013-04-21 12:12:00,
2013-04-21 04:22:00,33.0,33.0,-100.00,North,0,11.0,22.0,99,-99.99,,,-99.99,,2013-04-21 12:22:00,
2013-04-21 04:31:00,33.0,33.0,-100.00,North,0,11.0,22.0,99,-99.99,,,-99.99,,2013-04-21 12:31:00,
2013-04-21 04:42:00,33.0,33.0,-100.00,North,0,11.0,22.0,99,-99.99,,,-99.99,,2013-04-21 12:42:00,
2013-04-21 04:52:00,33.0,33.0,-100.00,North,350,9.0,16.0,99,-99.99,,,-99.99,,2013-04-21 12:52:00,
2013-04-21 05:01:00,33.0,33.0,-100.00,North,350,9.0,16.0,99,-99.99,,,-99.99,,2013-04-21 13:01:00,
2013-04-21 05:11:00,33.0,33.0,-100.00,North,350,9.0,16.0,99,-99.99,,,-99.99,,2013-04-21 13:11:00,
2013-04-21 05:21:00,33.0,33.0,-100.00,NNW,345,11.0,22.0,99,-99.99,,,-99.99,,2013-04-21 13:21:00,
2013-04-21 05:32:00,33.0,33.0,-100.00,NNW,345,11.0,22.0,99,-99.99,,,-99.99,,2013-04-21 13:32:00,
2013-04-21 05:42:00,33.0,33.0,-100.00,NNW,345,11.0,22.0,99,-99.99,,,-99.99,,2013-04-21 13:42:00,
2013-04-21 05:52:00,33.0,33.0,-100.00,North,350,13.0,22.0,99,-99.99,,,-99.99,,2013-04-21 13:52:00,
2013-04-21 06:01:00,33.0,33.0,-100.00,North,350,13.0,22.0,99,-99.99,,,-99.99,,2013-04-21 14:01:00,
2013-04-21 06:11:00,33.0,33.0,-100.00,North,350,13.0,22.0,99,-99.99,,,-99.99,,2013-04-21 14:11:00,
2013-04-21 06:21:00,33.0,33.0,-100.00,North,350,14.0,24.0,99,-99.99,,,-99.99,,2013-04-21 14:21:00,
2013-04-21 06:32:00,33.0,33.0,-100.00,North,350,14.0,24.0,99,-99.99,,,-99.99,,2013-04-21 14:32:00,
2013-04-21 06:42:00,33.0,33.0,-100.00,North,350,14.0,24.0,99,-99.99,,,-99.99,,2013-04-21 14:42:00,
2013-04-21 06:52:00,33.0,33.0,-100.00,North,0,16.0,24.0,99,-99.99,,,-99.99,,2013-04-21 14:52:00,
2013-04-21 07:02:00,33.0,33.0,-100.00,North,0,16.0,24.0,99,-99.99,,,-99.99,,2013-04-21 15:02:00,
2013-04-21 07:11:00,33.0,33.0,-100.00,North,0,16.0,24.0,99,-99.99,,,-99.99,,2013-04-21 15:11:00,
2013-04-21 07:22:00,33.0,33.0,-100.00,North,0,16.0,25.0,99,-99.99,,,-99.99,,2013-04-21 15:22:00,
2013-04-21 07:33:00,33.0,33.0,-100.00,North,0,16.0,25.0,99,-99.99,,,-99.99,,2013-04-21 15:33:00,
2013-04-21 07:42:00,33.0,33.0,-100.00,North,0,16.0,25.0,99,-99.99,,,-99.99,,2013-04-21 15:42:00,
2013-04-21 07:53:00,33.0,33.0,-100.00,NNW,345,16.0,21.0,99,-99.99,,,-99.99,,2013-04-21 15:53:00,
2013-04-21 08:03:00,33.0,33.0,-100.00,NNW,345,16.0,21.0,99,-99.99,,,-99.99,,2013-04-21 16:03:00,
2013-04-21 08:12:00,33.0,33.0,-100.00,NNW,345,16.0,21.0,99,-99.99,,,-99.99,,2013-04-21 16:12:00,
2013-04-21 08:22:00,32.0,32.0,-100.00,North,0,12.0,16.0,99,-99.99,,,-99.99,,2013-04-21 16:22:00,
2013-04-21 08:32:00,32.0,32.0,-100.00,North,0,12.0,16.0,99,-99.99,,,-99.99,,2013-04-21 16:32:00,
2013-04-21 08:42:00,32.0,32.0,-100.00,North,0,12.0,16.0,99,-99.99,,,-99.99,,2013-04-21 16:42:00,
2013-04-21 08:52:00,33.0,33.0,-100.00,North,0,13.0,17.0,99,-99.99,,,-99.99,,2013-04-21 16:52:00,
2013-04-21 09:02:00,33.0,33.0,-100.00,North,0,13.0,17.0,99,-99.99,,,-99.99,,2013-04-21 17:02:00,
2013-04-21 09:12:00,33.0,33.0,-100.00,North,0,13.0,17.0,99,-99.99,,,-99.99,,2013-04-21 17:12:00,
2013-04-21 09:22:00,33.0,33.0,-100.00,North,0,16.0,21.0,99,-99.99,,,-99.99,,2013-04-21 17:22:00,
2013-04-21 09:32:00,33.0,33.0,-100.00,North,0,16.0,21.0,99,-99.99,,,-99.99,,2013-04-21 17:32:00,
2013-04-21 09:42:00,33.0,33.0,-100.00,North,0,16.0,21.0,99,-99.99,,,-99.99,,2013-04-21 17:42:00,
2013-04-21 09:52:00,33.0,33.0,-100.00,North,0,12.0,18.0,99,-99.99,,,-99.99,,2013-04-21 17:52:00,
2013-04-21 10:02:00,33.0,33.0,-100.00,North,0,12.0,18.0,99,-99.99,,,-99.99,,2013-04-21 18:02:00,
2013-04-21 10:11:00,33.0,33.0,-100.00,North,0,12.0,18.0,99,-99.99,,,-99.99,,2013-04-21 18:11:00,
2013-04-21 10:21:00,33.0,33.0,-100.00,North,350,13.0,17.0,99,-99.99,,,-99.99,,2013-04-21 18:21:00,
2013-04-21 10:32:00,33.0,33.0,-100.00,North,350,13.0,17.0,99,-99.99,,,-99.99,,2013-04-21 18:32:00,
2013-04-21 10:42:00,33.0,33.0,-100.00,North,350,13.0,17.0,99,-99.99,,,-99.99,,2013-04-21 18:42:00,
2013-04-21 10:52:00,33.0,33.0,-100.00,North,355,12.0,19.0,99,-99.99,,,-99.99,,2013-04-21 18:52:00,
2013-04-21 11:02:00,33.0,33.0,-100.00,North,355,12.0,19.0,99,-99.99,,,-99.99,,2013-04-21 19:02:00,
2013-04-21 11:11:00,33.0,33.0,-100.00,North,355,12.0,19.0,99,-99.99,,,-99.99,,2013-04-21 19:11:00,
2013-04-21 11:21:00,33.0,33.0,-100.00,North,0,11.0,18.0,99,-99.99,,,-99.99,,2013-04-21 19:21:00,
2013-04-21 11:32:00,33.0,33.0,-100.00,North,0,11.0,18.0,99,-99.99,,,-99.99,,2013-04-21 19:32:00,
2013-04-21 11:42:00,33.0,33.0,-100.00,North,0,11.0,18.0,99,-99.99,,,-99.99,,2013-04-21 19:42:00,
2013-04-21 11:52:00,33.0,33.0,-100.00,North,355,13.0,17.0,99,-99.99,,,-99.99,,2013-04-21 19:52:00,
2013-04-21 12:01:00,33.0,33.0,-100.00,North,355,13.0,17.0,99,-99.99,,,-99.99,,2013-04-21 20:01:00,
2013-04-21 12:11:00,33.0,33.0,-100.00,North,355,13.0,17.0,99,-99.99,,,-99.99,,2013-04-21 20:11:00,
2013-04-21 12:21:00,34.0,34.0,-100.00,North,0,12.0,17.0,99,-99.99,,,-99.99,,2013-04-21 20:21:00,
2013-04-21 12:31:00,34.0,34.0,-100.00,North,0,12.0,17.0,99,-99.99,,,-99.99,,2013-04-21 20:31:00,
2013-04-21 12:41:00,34.0,34.0,-100.00,North,0,12.0,17.0,99,-99.99,,,-99.99,,2013-04-21 20:41:00,
2013-04-21 12:50:00,35.0,32.0,-100.00,North,350,19.0,29.0,87,-99.99,,,-99.99,,2013-04-21 20:50:00,
2013-04-21 12:52:00,35.0,35.0,-100.00,North,350,12.0,21.0,99,-99.99,,,-99.99,,2013-04-21 20:52:00,
2013-04-21 13:02:00,35.0,35.0,-100.00,North,350,12.0,21.0,99,-99.99,,,-99.99,,2013-04-21 21:02:00,
2013-04-21 13:12:00,35.0,35.0,-100.00,North,350,12.0,21.0,99,-99.99,,,-99.99,,2013-04-21 21:12:00,
2013-04-21 13:21:00,35.0,32.0,-100.00,North,350,19.0,29.0,87,-99.99,,,-99.99,,2013-04-21 21:21:00,
2013-04-21 13:33:00,35.0,32.0,-100.00,North,350,19.0,29.0,87,-99.99,,,-99.99,,2013-04-21 21:33:00,
2013-04-21 13:43:00,35.0,32.0,-100.00,North,350,19.0,29.0,87,-99.99,,,-99.99,,2013-04-21 21:43:00,
2013-04-21 14:52:00,38.0,28.0,-100.00,North,350,25.0,34.0,66,-99.99,,,-99.99,,2013-04-21 22:52:00,
2013-04-21 15:02:00,38.0,28.0,-100.00,North,350,25.0,34.0,66,-99.99,,,-99.99,,2013-04-21 23:02:00,
2013-04-21 15:12:00,38.0,28.0,-100.00,North,350,25.0,34.0,66,-99.99,,,-99.99,,2013-04-21 23:12:00,
2013-04-21 15:22:00,39.0,28.0,-100.00,North,350,24.0,31.0,65,-99.99,,,-99.99,,2013-04-21 23:22:00,
2013-04-21 15:32:00,39.0,28.0,-100.00,North,350,24.0,31.0,65,-99.99,,,-99.99,,2013-04-21 23:32:00,
2013-04-21 15:42:00,39.0,28.0,-100.00,North,350,24.0,31.0,65,-99.99,,,-99.99,,2013-04-21 23:42:00,
2013-04-21 15:52:00,39.0,27.0,-100.00,NNW,330,18.0,29.0,61,-99.99,,,-99.99,,2013-04-21 23:52:00,
2013-04-21 16:01:00,39.0,27.0,-100.00,NNW,330,18.0,29.0,61,-99.99,,,-99.99,,2013-04-22 00:01:00,
2013-04-21 16:11:00,39.0,27.0,-100.00,NNW,330,18.0,29.0,61,-99.99,,,-99.99,,2013-04-22 00:11:00,
2013-04-21 16:21:00,39.0,27.0,-100.00,NNW,340,29.0,43.0,61,-99.99,,,-99.99,,2013-04-22 00:21:00,
2013-04-21 16:32:00,39.0,27.0,-100.00,NNW,340,29.0,43.0,61,-99.99,,,-99.99,,2013-04-22 00:32:00,
2013-04-21 16:42:00,39.0,27.0,-100.00,NNW,340,29.0,43.0,61,-99.99,,,-99.99,,2013-04-22 00:42:00,
2013-04-21 16:51:00,39.0,27.0,-100.00,NW,325,16.0,30.0,61,-99.99,,,-99.99,,2013-04-22 00:51:00,
2013-04-21 17:01:00,39.0,27.0,-100.00,NW,325,16.0,30.0,61,-99.99,,,-99.99,,2013-04-22 01:01:00,
2013-04-21 17:11:00,39.0,27.0,-100.00,NW,325,16.0,30.0,61,-99.99,,,-99.99,,2013-04-22 01:11:00,
2013-04-21 17:21:00,40.0,27.0,-100.00,NNW,340,26.0,35.0,59,-99.99,,,-99.99,,2013-04-22 01:21:00,
2013-04-21 17:32:00,40.0,27.0,-100.00,NNW,340,26.0,35.0,59,-99.99,,,-99.99,,2013-04-22 01:32:00,
2013-04-21 17:41:00,40.0,27.0,-100.00,NNW,340,26.0,35.0,59,-99.99,,,-99.99,,2013-04-22 01:41:00,
2013-04-21 17:52:00,40.0,28.0,-100.00,NNW,345,19.0,31.0,61,-99.99,,,-99.99,,2013-04-22 01:52:00,
2013-04-21 18:01:00,40.0,28.0,-100.00,NNW,345,19.0,31.0,61,-99.99,,,-99.99,,2013-04-22 02:01:00,
2013-04-21 18:11:00,40.0,28.0,-100.00,NNW,345,19.0,31.0,61,-99.99,,,-99.99,,2013-04-22 02:11:00,
2013-04-21 18:21:00,39.0,28.0,-100.00,North,350,17.0,25.0,62,-99.99,,,-99.99,,2013-04-22 02:21:00,
2013-04-21 18:32:00,39.0,28.0,-100.00,North,350,17.0,25.0,62,-99.99,,,-99.99,,2013-04-22 02:32:00,
2013-04-21 18:42:00,39.0,28.0,-100.00,North,350,17.0,25.0,62,-99.99,,,-99.99,,2013-04-22 02:42:00,
2013-04-21 18:51:00,40.0,28.0,-100.00,NNW,340,15.0,26.0,63,-99.99,,,-99.99,,2013-04-22 02:51:00,
2013-04-21 19:02:00,40.0,28.0,-100.00,NNW,340,15.0,26.0,63,-99.99,,,-99.99,,2013-04-22 03:02:00,
2013-04-21 19:11:00,40.0,28.0,-100.00,NNW,340,15.0,26.0,63,-99.99,,,-99.99,,2013-04-22 03:11:00,
2013-04-21 19:22:00,40.0,29.0,-100.00,NNW,340,12.0,22.0,65,-99.99,,,-99.99,,2013-04-22 03:22:00,
2013-04-21 19:33:00,40.0,29.0,-100.00,NNW,340,12.0,22.0,65,-99.99,,,-99.99,,2013-04-22 03:33:00,
2013-04-21 19:42:00,40.0,29.0,-100.00,NNW,340,12.0,22.0,65,-99.99,,,-99.99,,2013-04-22 03:42:00,
2013-04-21 19:52:00,39.0,29.0,-100.00,North,350,12.0,16.0,65,-99.99,,,-99.99,,2013-04-22 03:52:00,
2013-04-21 20:02:00,39.0,29.0,-100.00,North,350,12.0,16.0,65,-99.99,,,-99.99,,2013-04-22 04:02:00,
2013-04-21 20:12:00,39.0,29.0,-100.00,North,350,12.0,16.0,65,-99.99,,,-99.99,,2013-04-22 04:12:00,
2013-04-21 20:23:00,39.0,29.0,-100.00,North,0,9.0,13.0,67,-99.99,,,-99.99,,2013-04-22 04:23:00,
2013-04-21 20:32:00,39.0,29.0,-100.00,North,0,9.0,13.0,67,-99.99,,,-99.99,,2013-04-22 04:32:00,
2013-04-21 20:43:00,39.0,29.0,-100.00,North,0,9.0,13.0,67,-99.99,,,-99.99,,2013-04-22 04:43:00,
2013-04-21 20:52:00,38.0,29.0,-100.00,North,0,5.0,8.0,69,-99.99,,,-99.99,,2013-04-22 04:52:00,
2013-04-21 21:02:00,38.0,29.0,-100.00,North,0,5.0,8.0,69,-99.99,,,-99.99,,2013-04-22 05:02:00,
2013-04-21 21:11:00,38.0,29.0,-100.00,North,0,5.0,8.0,69,-99.99,,,-99.99,,2013-04-22 05:11:00,
2013-04-21 21:22:00,37.0,29.0,-100.00,North,5,8.0,14.0,71,-99.99,,,-99.99,,2013-04-22 05:22:00,
2013-04-21 21:32:00,37.0,29.0,-100.00,North,5,8.0,14.0,71,-99.99,,,-99.99,,2013-04-22 05:32:00,
2013-04-21 21:42:00,37.0,29.0,-100.00,North,5,8.0,14.0,71,-99.99,,,-99.99,,2013-04-22 05:42:00,
2013-04-21 21:52:00,36.0,29.0,-100.00,NNW,340,6.0,9.0,74,-99.99,,,-99.99,,2013-04-22 05:52:00,
2013-04-21 22:02:00,36.0,29.0,-100.00,NNW,340,6.0,9.0,74,-99.99,,,-99.99,,2013-04-22 06:02:00,
2013-04-21 22:12:00,36.0,29.0,-100.00,NNW,340,6.0,9.0,74,-99.99,,,-99.99,,2013-04-22 06:12:00,
2013-04-21 22:21:00,36.0,29.0,-100.00,North,5,7.0,11.0,76,-99.99,,,-99.99,,2013-04-22 06:21:00,
2013-04-21 22:32:00,36.0,29.0,-100.00,North,5,7.0,11.0,76,-99.99,,,-99.99,,2013-04-22 06:32:00,
2013-04-21 22:42:00,36.0,29.0,-100.00,North,5,7.0,11.0,76,-99.99,,,-99.99,,2013-04-22 06:42:00,
2013-04-21 22:51:00,36.0,29.0,-100.00,North,0,6.0,12.0,77,-99.99,,,-99.99,,2013-04-22 06:51:00,
2013-04-21 23:01:00,36.0,29.0,-100.00,North,0,6.0,12.0,77,-99.99,,,-99.99,,2013-04-22 07:01:00,
2013-04-21 23:11:00,36.0,29.0,-100.00,North,0,6.0,12.0,77,-99.99,,,-99.99,,2013-04-22 07:11:00,
2013-04-21 23:21:00,36.0,30.0,-100.00,North,0,11.0,19.0,77,-99.99,,,-99.99,,2013-04-22 07:21:00,
2013-04-21 23:32:00,36.0,30.0,-100.00,North,0,11.0,19.0,77,-99.99,,,-99.99,,2013-04-22 07:32:00,
2013-04-21 23:42:00,36.0,30.0,-100.00,North,0,11.0,19.0,77,-99.99,,,-99.99,,2013-04-22 07:42:00,
2013-04-21 23:52:00,35.0,29.0,-100.00,North,0,11.0,17.0,77,-99.99,,,-99.99,,2013-04-22 07:52:00,